createdAt,value
2018-06-15T00:00:11.409Z,72.85
2018-06-15T00:00:51.963Z,73.72
2018-06-15T00:01:32.504Z,73.62
2018-06-15T00:02:13.036Z,73.24
2018-06-15T00:02:53.556Z,73.33
2018-06-15T00:03:34.094Z,73.33
2018-06-15T00:04:14.635Z,73.72
2018-06-15T00:04:55.149Z,74.2
2018-06-15T00:05:35.709Z,73.72
2018-06-15T00:06:16.244Z,74.01
2018-06-15T00:06:56.774Z,73.72
2018-06-15T00:07:37.317Z,73.62
2018-06-15T00:08:17.828Z,73.43
2018-06-15T00:10:31.129Z,74.4
2018-06-15T00:11:11.673Z,74.3
2018-06-15T00:11:52.193Z,74.2
2018-06-15T00:12:32.712Z,74.3
2018-06-15T00:13:13.247Z,74.2
2018-06-15T00:13:53.759Z,74.58
2018-06-15T00:14:34.268Z,74.16
2018-06-15T00:15:14.804Z,73.82
2018-06-15T00:15:55.325Z,74.3
2018-06-15T00:16:35.864Z,74.01
2018-06-15T00:17:16.368Z,74.49
2018-06-15T00:17:56.888Z,74.2
2018-06-15T00:18:37.400Z,74.01
2018-06-15T00:19:17.921Z,73.82
2018-06-15T00:19:58.441Z,73.82
2018-06-15T00:20:38.974Z,73.91
2018-06-15T00:21:19.484Z,74.49
2018-06-15T00:22:00.012Z,74.1
2018-06-15T00:22:40.524Z,74.1
2018-06-15T00:23:21.031Z,74.49
2018-06-15T00:24:01.553Z,74.01
2018-06-15T00:24:42.104Z,74.4
2018-06-15T00:25:22.591Z,74.4
2018-06-15T00:26:03.109Z,73.91
2018-06-15T00:26:43.625Z,74.2
2018-06-15T00:27:24.172Z,74.78
2018-06-15T00:28:04.688Z,74.1
2018-06-15T00:28:45.198Z,73.82
2018-06-15T00:29:25.713Z,74.58
2018-06-15T00:30:06.237Z,74.3
2018-06-15T00:30:46.750Z,74.58
2018-06-15T00:31:27.271Z,74.01
2018-06-15T00:32:07.792Z,74.4
2018-06-15T00:32:48.310Z,74.1
2018-06-15T00:33:28.926Z,74.68
2018-06-15T00:34:09.451Z,74.68
2018-06-15T00:34:49.976Z,74.58
2018-06-15T00:35:30.661Z,74.1
2018-06-15T00:36:11.177Z,74.3
2018-06-15T00:36:51.707Z,74.3
2018-06-15T00:37:32.239Z,73.82
2018-06-15T00:38:12.764Z,73.53
2018-06-15T00:38:53.293Z,73.91
2018-06-15T00:39:33.807Z,74.1
2018-06-15T00:40:14.341Z,74.49
2018-06-15T00:40:54.850Z,73.72
2018-06-15T00:41:35.356Z,74.3
2018-06-15T00:42:15.888Z,74.49
2018-06-15T00:42:56.404Z,74.2
2018-06-15T00:43:36.926Z,74.4
2018-06-15T00:44:17.445Z,74.4
2018-06-15T00:44:57.974Z,74.01
2018-06-15T00:45:38.492Z,74.78
2018-06-15T00:46:19.009Z,74.78
2018-06-15T00:46:59.528Z,75.07
2018-06-15T00:47:40.048Z,74.88
2018-06-15T00:48:20.573Z,75.55
2018-06-15T00:49:01.113Z,75.26
2018-06-15T00:49:41.629Z,75.74
2018-06-15T00:50:22.154Z,75.45
2018-06-15T00:51:02.691Z,75.74
2018-06-15T00:51:43.194Z,75.93
2018-06-15T00:52:23.719Z,75.65
2018-06-15T00:53:04.237Z,75.23
2018-06-15T00:53:44.756Z,75.51
2018-06-15T00:54:25.290Z,75.65
2018-06-15T00:55:05.820Z,75.84
2018-06-15T00:55:46.337Z,75.8
2018-06-15T00:56:26.893Z,75.93
2018-06-15T00:57:07.409Z,75.74
2018-06-15T00:57:47.927Z,75.74
2018-06-15T00:58:28.455Z,76.48
2018-06-15T00:59:08.966Z,76.28
2018-06-15T00:59:49.482Z,76.38
2018-06-15T01:00:30.050Z,76.18
2018-06-15T01:01:10.558Z,76.09
2018-06-15T01:01:51.101Z,76.67
2018-06-15T01:02:31.613Z,76.48
2018-06-15T01:03:12.136Z,76.76
2018-06-15T01:03:52.652Z,76.23
2018-06-15T01:04:33.165Z,76.76
2018-06-15T01:05:13.677Z,76.38
2018-06-15T01:05:54.199Z,76.48
2018-06-15T01:06:34.759Z,76.48
2018-06-15T01:07:15.293Z,76.28
2018-06-15T01:07:55.817Z,75.99
2018-06-15T01:08:36.332Z,76.18
2018-06-15T01:09:16.850Z,76.67
2018-06-15T01:09:57.372Z,76.67
2018-06-15T01:10:37.893Z,76.28
2018-06-15T01:11:18.410Z,76.57
2018-06-15T01:11:58.948Z,76.28
2018-06-15T01:12:39.456Z,76.57
2018-06-15T01:13:19.987Z,76.38
2018-06-15T01:14:00.508Z,76.18
2018-06-15T01:14:41.037Z,76.09
2018-06-15T01:15:21.557Z,76.28
2018-06-15T01:16:02.076Z,76.09
2018-06-15T01:16:42.599Z,76.67
2018-06-15T01:17:23.130Z,76.09
2018-06-15T01:18:03.646Z,76.28
2018-06-15T01:18:44.147Z,76.67
2018-06-15T01:19:24.678Z,76.96
2018-06-15T01:20:05.182Z,76.96
2018-06-15T01:20:45.759Z,76.76
2018-06-15T01:21:26.209Z,77.53
2018-06-15T01:22:06.731Z,77.53
2018-06-15T01:22:47.234Z,77.44
2018-06-15T01:23:27.754Z,77.44
2018-06-15T01:24:08.276Z,77.53
2018-06-15T01:24:48.794Z,77.53
2018-06-15T01:25:29.316Z,77.53
2018-06-15T01:26:09.849Z,77.34
2018-06-15T01:26:50.355Z,77.73
2018-06-15T01:27:30.892Z,77.53
2018-06-15T01:28:11.407Z,77.53
2018-06-15T01:28:51.937Z,77.53
2018-06-15T01:29:32.471Z,77.73
2018-06-15T01:30:12.978Z,77.63
2018-06-15T01:30:53.513Z,77.53
2018-06-15T01:31:34.041Z,77.25
2018-06-15T01:32:14.569Z,77.53
2018-06-15T01:32:55.081Z,77.06
2018-06-15T01:33:35.615Z,77.15
2018-06-15T01:34:16.127Z,77.34
2018-06-15T01:34:56.649Z,77.44
2018-06-15T01:35:37.168Z,77.44
2018-06-15T01:36:17.703Z,77.44
2018-06-15T01:36:58.237Z,77.44
2018-06-15T01:39:16.615Z,76.86
2018-06-15T01:39:57.145Z,77.15
2018-06-15T01:40:37.655Z,76.96
2018-06-15T01:41:18.180Z,77.44
2018-06-15T01:41:58.696Z,76.86
2018-06-15T01:42:39.209Z,76.86
2018-06-15T01:43:19.734Z,77.34
2018-06-15T01:44:00.251Z,77.73
2018-06-15T01:44:40.767Z,77.34
2018-06-15T01:45:21.282Z,77.73
2018-06-15T01:46:01.807Z,77.25
2018-06-15T01:46:42.336Z,77.15
2018-06-15T01:47:22.850Z,77.25
2018-06-15T01:48:03.365Z,77.53
2018-06-15T01:48:43.873Z,77.73
2018-06-15T01:49:24.404Z,77.73
2018-06-15T01:50:04.922Z,77.44
2018-06-15T01:50:45.446Z,77.44
2018-06-15T01:51:25.970Z,77.15
2018-06-15T01:52:06.488Z,76.92
2018-06-15T01:52:47.022Z,77.31
2018-06-15T01:53:27.538Z,77.4
2018-06-15T01:54:08.067Z,77.21
2018-06-15T01:54:48.599Z,77.4
2018-06-15T01:55:29.112Z,76.92
2018-06-15T01:56:09.620Z,77.21
2018-06-15T01:56:50.201Z,77.21
2018-06-15T01:57:30.734Z,77.11
2018-06-15T01:58:11.251Z,76.96
2018-06-15T01:58:51.763Z,77.06
2018-06-15T01:59:32.286Z,77.15
2018-06-15T02:00:12.833Z,76.67
2018-06-15T02:00:53.342Z,76.48
2018-06-15T02:01:33.883Z,77.06
2018-06-15T02:02:14.382Z,76.38
2018-06-15T02:02:54.893Z,76.57
2018-06-15T02:03:35.405Z,76.48
2018-06-15T02:04:15.936Z,76.57
2018-06-15T02:04:56.462Z,76.57
2018-06-15T02:05:36.977Z,76.76
2018-06-15T02:06:17.517Z,76.38
2018-06-15T02:06:58.045Z,77.15
2018-06-15T02:07:38.581Z,76.28
2018-06-15T02:08:19.094Z,76.48
2018-06-15T02:08:59.634Z,76.57
2018-06-15T02:09:40.159Z,77.06
2018-06-15T02:10:20.693Z,76.86
2018-06-15T02:11:01.205Z,76.86
2018-06-15T02:11:41.731Z,77.06
2018-06-15T02:12:22.257Z,77.53
2018-06-15T02:13:02.776Z,77.44
2018-06-15T02:13:43.292Z,77.44
2018-06-15T02:14:23.804Z,77.34
2018-06-15T02:15:04.336Z,77.73
2018-06-15T02:15:44.857Z,77.73
2018-06-15T02:16:25.381Z,77.73
2018-06-15T02:17:05.903Z,77.63
2018-06-15T02:17:46.439Z,77.63
2018-06-15T02:18:26.957Z,77.73
2018-06-15T02:19:07.471Z,77.59
2018-06-15T02:19:47.984Z,77.34
2018-06-15T02:20:28.503Z,77.73
2018-06-15T02:21:09.031Z,77.25
2018-06-15T02:21:49.548Z,77.34
2018-06-15T02:22:30.066Z,77.44
2018-06-15T02:23:10.581Z,77.34
2018-06-15T02:23:51.100Z,77.15
2018-06-15T02:24:31.626Z,77.5
2018-06-15T02:25:12.150Z,77.34
2018-06-15T02:25:52.684Z,77.53
2018-06-15T02:26:33.185Z,77.31
2018-06-15T02:27:13.713Z,77.44
2018-06-15T02:27:54.225Z,77.44
2018-06-15T02:28:34.737Z,77.73
2018-06-15T02:29:15.246Z,77.34
2018-06-15T02:29:55.776Z,77.21
2018-06-15T02:30:36.295Z,77.69
2018-06-15T02:31:16.819Z,77.5
2018-06-15T02:31:57.336Z,77.44
2018-06-15T02:32:37.872Z,77.5
2018-06-15T02:33:18.396Z,77.44
2018-06-15T02:33:58.911Z,77.31
2018-06-15T02:34:39.424Z,78.27
2018-06-15T02:35:19.945Z,78.65
2018-06-15T02:36:00.470Z,78.65
2018-06-15T02:36:41.009Z,78.36
2018-06-15T02:37:21.537Z,78.27
2018-06-15T02:38:02.090Z,78.46
2018-06-15T02:38:42.606Z,78.17
2018-06-15T02:39:23.121Z,78.08
2018-06-15T02:40:03.634Z,78.65
2018-06-15T02:40:44.148Z,78.75
2018-06-15T02:41:24.671Z,78.46
2018-06-15T02:42:05.185Z,78.75
2018-06-15T02:42:45.692Z,79.03
2018-06-15T02:43:26.219Z,78.65
2018-06-15T02:44:06.743Z,78.85
2018-06-15T02:44:47.256Z,78.85
2018-06-15T02:45:27.848Z,79.52
2018-06-15T02:46:08.313Z,79.23
2018-06-15T02:46:48.827Z,79.03
2018-06-15T02:47:29.346Z,79.03
2018-06-15T02:48:09.865Z,78.75
2018-06-15T02:48:50.386Z,79.23
2018-06-15T02:49:30.925Z,79.13
2018-06-15T02:50:11.405Z,79.23
2018-06-15T02:50:51.925Z,78.85
2018-06-15T02:51:32.453Z,79.03
2018-06-15T02:52:12.975Z,79.03
2018-06-15T02:52:53.487Z,79.13
2018-06-15T02:53:34.011Z,79.23
2018-06-15T02:54:14.532Z,78.75
2018-06-15T02:54:55.056Z,78.75
2018-06-15T02:55:35.580Z,78.65
2018-06-15T02:56:16.095Z,78.75
2018-06-15T02:56:56.625Z,78.85
2018-06-15T02:57:37.144Z,78.85
2018-06-15T02:58:17.657Z,78.85
2018-06-15T02:58:58.250Z,78.75
2018-06-15T02:59:38.761Z,78.94
2018-06-15T03:00:19.274Z,78.85
2018-06-15T03:00:59.793Z,78.75
2018-06-15T03:01:40.306Z,78.65
2018-06-15T03:02:20.845Z,78.65
2018-06-15T03:03:01.371Z,78.65
2018-06-15T03:03:41.880Z,79.33
2018-06-15T03:04:22.403Z,79.23
2018-06-15T03:05:02.932Z,79.23
2018-06-15T03:05:43.434Z,79.13
2018-06-15T03:06:23.956Z,79.33
2018-06-15T03:07:04.468Z,78.56
2018-06-15T03:07:44.973Z,78.65
2018-06-15T03:08:25.494Z,78.75
2018-06-15T03:09:06.003Z,78.56
2018-06-15T03:09:46.526Z,79.43
2018-06-15T03:10:27.045Z,79.23
2018-06-15T03:11:07.560Z,79.13
2018-06-15T03:11:48.071Z,78.85
2018-06-15T03:12:28.596Z,79.13
2018-06-15T03:13:09.108Z,78.85
2018-06-15T03:13:49.618Z,79.23
2018-06-15T03:14:30.142Z,79.03
2018-06-15T03:15:10.665Z,79.33
2018-06-15T03:15:51.189Z,79.33
2018-06-15T03:16:31.723Z,79.23
2018-06-15T03:17:12.244Z,78.75
2018-06-15T03:17:52.751Z,79.33
2018-06-15T03:18:33.275Z,79.23
2018-06-15T03:19:13.795Z,79.33
2018-06-15T03:19:54.308Z,79.13
2018-06-15T03:20:34.822Z,79.03
2018-06-15T03:21:15.337Z,79.9
2018-06-15T03:21:55.845Z,79.71
2018-06-15T03:22:36.371Z,79.52
2018-06-15T03:23:16.892Z,79.52
2018-06-15T03:23:57.409Z,79.43
2018-06-15T03:24:37.932Z,79.52
2018-06-15T03:25:18.625Z,79.71
2018-06-15T03:25:59.131Z,79.81
2018-06-15T03:26:39.646Z,79.71
2018-06-15T03:27:20.171Z,79.81
2018-06-15T03:28:00.685Z,79.86
2018-06-15T03:28:41.190Z,79.81
2018-06-15T03:29:21.711Z,79.96
2018-06-15T03:30:02.236Z,80.15
2018-06-15T03:30:42.762Z,79.86
2018-06-15T03:31:23.277Z,79.81
2018-06-15T03:32:03.795Z,80.19
2018-06-15T03:32:44.325Z,80.06
2018-06-15T03:33:24.844Z,79.61
2018-06-15T03:34:05.382Z,80.1
2018-06-15T03:34:45.892Z,79.61
2018-06-15T03:35:26.431Z,79.71
2018-06-15T03:36:06.940Z,79.71
2018-06-15T03:36:47.472Z,79.9
2018-06-15T03:37:27.988Z,79.71
2018-06-15T03:38:08.504Z,79.52
2018-06-15T03:38:49.028Z,79.43
2018-06-15T03:39:29.545Z,79.71
2018-06-15T03:40:10.056Z,79.52
2018-06-15T03:40:50.566Z,79.71
2018-06-15T03:41:31.083Z,79.9
2018-06-15T03:42:11.609Z,79.9
2018-06-15T03:42:52.126Z,79.9
2018-06-15T03:43:32.641Z,79.9
2018-06-15T03:44:13.155Z,80.29
2018-06-15T03:44:53.679Z,79.9
2018-06-15T03:45:34.179Z,79.52
2018-06-15T03:46:14.697Z,79.61
2018-06-15T03:46:55.216Z,79.52
2018-06-15T03:47:35.728Z,79.61
2018-06-15T03:48:16.250Z,80
2018-06-15T03:48:56.767Z,79.03
2018-06-15T03:49:37.289Z,79.36
2018-06-15T03:50:17.828Z,79.03
2018-06-15T03:50:58.388Z,78.79
2018-06-15T03:51:38.909Z,78.85
2018-06-15T03:52:19.423Z,78.56
2018-06-15T03:52:59.938Z,78.31
2018-06-15T03:53:40.455Z,78.27
2018-06-15T03:54:20.978Z,78.36
2018-06-15T03:55:01.531Z,78.46
2018-06-15T03:55:42.045Z,78.36
2018-06-15T03:56:22.559Z,78.17
2018-06-15T03:57:03.088Z,78.59
2018-06-15T03:57:43.597Z,78.17
2018-06-15T03:58:24.106Z,78.56
2018-06-15T03:59:04.635Z,78.31
2018-06-15T03:59:45.166Z,78.59
2018-06-15T04:00:25.719Z,78.5
2018-06-15T04:01:06.242Z,77.88
2018-06-15T04:01:46.752Z,78.11
2018-06-15T04:02:27.270Z,78.4
2018-06-15T04:03:07.787Z,78.31
2018-06-15T04:03:48.302Z,78.11
2018-06-15T04:04:28.836Z,78.31
2018-06-15T04:05:09.362Z,77.92
2018-06-15T04:05:49.882Z,77.92
2018-06-15T04:06:30.389Z,78.02
2018-06-15T04:07:10.932Z,77.92
2018-06-15T04:07:51.445Z,78.11
2018-06-15T04:08:31.972Z,77.92
2018-06-15T04:09:12.502Z,77.92
2018-06-15T04:09:53.017Z,77.34
2018-06-15T04:10:33.530Z,77.92
2018-06-15T04:11:14.054Z,77.53
2018-06-15T04:11:54.588Z,77.63
2018-06-15T04:12:35.101Z,77.44
2018-06-15T04:13:15.641Z,77.63
2018-06-15T04:13:56.131Z,77.63
2018-06-15T04:14:36.660Z,77.44
2018-06-15T04:15:17.169Z,77.53
2018-06-15T04:15:57.682Z,77.15
2018-06-15T04:16:38.209Z,77.63
2018-06-15T04:17:18.737Z,77.34
2018-06-15T04:17:59.251Z,77.34
2018-06-15T04:18:39.772Z,77.25
2018-06-15T04:19:20.294Z,76.76
2018-06-15T04:20:00.827Z,77.15
2018-06-15T04:20:41.345Z,77.34
2018-06-15T04:21:21.868Z,76.76
2018-06-15T04:22:02.393Z,77.15
2018-06-15T04:22:42.922Z,77.15
2018-06-15T04:23:23.439Z,76.96
2018-06-15T04:24:03.958Z,76.67
2018-06-15T04:24:44.478Z,76.67
2018-06-15T04:25:25.004Z,76.67
2018-06-15T04:26:05.535Z,76.48
2018-06-15T04:26:46.057Z,76.32
2018-06-15T04:27:26.577Z,76.51
2018-06-15T04:28:07.106Z,75.74
2018-06-15T04:28:47.623Z,75.36
2018-06-15T04:29:28.136Z,75.65
2018-06-15T04:30:08.678Z,75.74
2018-06-15T04:30:49.211Z,75.45
2018-06-15T04:31:29.731Z,75.01
2018-06-15T04:32:10.251Z,74.82
2018-06-15T04:32:50.773Z,75.2
2018-06-15T04:33:31.308Z,75.1
2018-06-15T04:34:11.827Z,75.26
2018-06-15T04:34:52.353Z,74.82
2018-06-15T04:35:32.878Z,74.33
2018-06-15T04:36:13.396Z,74.05
2018-06-15T04:36:53.913Z,74.52
2018-06-15T04:37:34.441Z,74.24
2018-06-15T04:38:14.972Z,73.95
2018-06-15T04:38:55.484Z,74.14
2018-06-15T04:39:36.008Z,74.33
2018-06-15T04:40:16.529Z,73.79
2018-06-15T04:40:57.046Z,73.6
2018-06-15T04:41:37.563Z,73.31
2018-06-15T04:42:18.073Z,73.21
2018-06-15T04:42:58.697Z,73.11
2018-06-15T04:43:39.217Z,72.86
2018-06-15T04:44:19.735Z,72.86
2018-06-15T04:45:00.262Z,73.11
2018-06-15T04:45:40.791Z,73.11
2018-06-15T04:46:21.313Z,73.6
2018-06-15T04:47:01.825Z,73.79
2018-06-15T04:47:42.329Z,73.99
2018-06-15T04:48:22.866Z,73.79
2018-06-15T04:49:03.378Z,73.69
2018-06-15T04:49:43.909Z,73.89
2018-06-15T04:50:24.426Z,73.99
2018-06-15T04:51:04.945Z,74.18
2018-06-15T04:51:45.466Z,73.89
2018-06-15T04:52:25.997Z,73.5
2018-06-15T04:53:06.515Z,73.79
2018-06-15T04:53:47.031Z,73.69
2018-06-15T04:54:27.554Z,73.6
2018-06-15T04:55:08.126Z,73.5
2018-06-15T04:55:48.616Z,73.69
2018-06-15T04:56:29.131Z,73.11
2018-06-15T04:57:09.678Z,72.86
2018-06-15T04:57:50.194Z,72.86
2018-06-15T04:58:30.734Z,73.21
2018-06-15T04:59:11.260Z,73.21
2018-06-15T04:59:51.772Z,73.11
2018-06-15T05:00:32.286Z,73.21
2018-06-15T05:01:12.807Z,73.5
2018-06-15T05:01:53.341Z,73.35
2018-06-15T05:02:33.866Z,72.96
2018-06-15T05:03:14.439Z,72.67
2018-06-15T05:03:54.901Z,72.96
2018-06-15T05:04:35.423Z,72.77
2018-06-15T05:05:15.942Z,72
2018-06-15T05:05:56.466Z,72.38
2018-06-15T05:06:36.988Z,72
2018-06-15T05:07:17.518Z,72
2018-06-15T05:07:58.048Z,71.9
2018-06-15T05:08:38.567Z,71.8
2018-06-15T05:09:19.354Z,72
2018-06-15T05:09:59.820Z,72.28
2018-06-15T05:10:40.339Z,71.9
2018-06-15T05:11:20.853Z,71.9
2018-06-15T05:12:01.360Z,71.8
2018-06-15T05:12:41.895Z,72.19
2018-06-15T05:13:22.416Z,71.51
2018-06-15T05:14:02.937Z,71.7
2018-06-15T05:14:43.465Z,71.22
2018-06-15T05:15:23.975Z,71.42
2018-06-15T05:16:04.512Z,71.22
2018-06-15T05:16:45.025Z,71.32
2018-06-15T05:17:25.548Z,71.12
2018-06-15T05:18:06.060Z,70.58
2018-06-15T05:18:46.596Z,70.78
2018-06-15T05:19:27.125Z,70
2018-06-15T05:20:07.638Z,70.1
2018-06-15T05:20:48.149Z,69.71
2018-06-15T05:21:28.685Z,70.1
2018-06-15T05:22:09.214Z,72.32
2018-06-15T05:22:49.737Z,75.37
2018-06-15T05:23:30.276Z,74.89
2018-06-15T05:24:10.763Z,74.6
2018-06-15T05:24:51.394Z,76.72
2018-06-15T05:25:31.866Z,76.95
2018-06-15T05:26:12.370Z,77.15
2018-06-15T05:26:52.893Z,75.79
2018-06-15T05:27:33.405Z,76.12
2018-06-15T05:28:13.946Z,76.32
2018-06-15T05:28:54.452Z,78.69
2018-06-15T05:29:34.977Z,80.33
2018-06-15T05:30:15.506Z,79.27
2018-06-15T05:30:56.021Z,78.59
2018-06-15T05:31:36.550Z,78.36
2018-06-15T05:32:17.081Z,78.85
2018-06-15T05:32:57.607Z,78.46
2018-06-15T05:33:38.123Z,79.91
2018-06-15T05:34:19.016Z,79.14
2018-06-15T05:34:59.540Z,79.33
2018-06-15T05:35:40.043Z,79.24
2018-06-15T05:36:20.551Z,79.04
2018-06-15T05:37:01.087Z,77.73
2018-06-15T05:37:41.599Z,79.95
2018-06-15T05:38:22.106Z,82.61
2018-06-15T05:39:02.649Z,83.67
2018-06-15T05:39:43.178Z,84.25
2018-06-15T05:40:23.693Z,82.81
2018-06-15T05:41:04.210Z,80.58
2018-06-15T05:41:44.746Z,78.46
2018-06-15T05:42:25.248Z,79.24
2018-06-15T05:43:05.766Z,79.52
2018-06-15T05:43:46.301Z,81.55
2018-06-15T05:44:26.858Z,81.16
2018-06-15T05:45:07.336Z,79.62
2018-06-15T05:45:47.867Z,79.24
2018-06-15T05:46:28.386Z,79.33
2018-06-15T05:47:08.894Z,78.66
2018-06-15T05:47:49.411Z,79.14
2018-06-15T05:48:29.987Z,80
2018-06-15T05:49:10.483Z,81.88
2018-06-15T05:49:51.017Z,82.42
2018-06-15T05:50:31.505Z,81.16
2018-06-15T05:51:12.028Z,80.68
2018-06-15T05:51:52.547Z,80
2018-06-15T05:52:33.064Z,77.88
2018-06-15T05:53:13.582Z,75.89
2018-06-15T05:53:54.079Z,77.34
2018-06-15T05:54:34.658Z,78.69
2018-06-15T05:55:15.134Z,77.86
2018-06-15T05:55:55.655Z,76.51
2018-06-15T05:56:36.186Z,74.62
2018-06-15T05:57:16.715Z,71.59
2018-06-15T05:57:57.224Z,70.72
2018-06-15T05:58:37.746Z,71.53
2018-06-15T05:59:18.263Z,71.62
2018-06-15T05:59:58.791Z,70.18
2018-06-15T06:00:39.312Z,71.14
2018-06-15T06:01:19.818Z,68.82
2018-06-15T06:02:00.355Z,66.98
2018-06-15T06:02:40.847Z,68.73
2018-06-15T06:03:21.366Z,70.95
2018-06-15T06:04:02.078Z,70.95
2018-06-15T06:04:42.435Z,70.18
2018-06-15T06:05:22.952Z,71.14
2018-06-15T06:06:03.497Z,71.53
2018-06-15T06:06:44.017Z,70.08
2018-06-15T06:07:24.548Z,70.11
2018-06-15T06:08:05.057Z,72.83
2018-06-15T06:08:45.588Z,71.47
2018-06-15T06:09:26.101Z,70.4
2018-06-15T06:10:06.620Z,73.02
2018-06-15T06:10:47.109Z,74.47
2018-06-15T06:11:27.664Z,73.21
2018-06-15T06:12:08.159Z,71.18
2018-06-15T06:12:48.702Z,69.63
2018-06-15T06:13:29.235Z,71.28
2018-06-15T06:14:09.755Z,72.34
2018-06-15T06:14:50.270Z,68.99
2018-06-15T06:15:30.846Z,68.89
2018-06-15T06:16:11.352Z,71.7
2018-06-15T06:16:51.882Z,70.15
2018-06-15T06:17:32.434Z,67.27
2018-06-15T06:18:12.962Z,70.28
2018-06-15T06:18:53.456Z,73.73
2018-06-15T06:19:33.963Z,77.03
2018-06-15T06:20:14.499Z,74.02
2018-06-15T06:20:55.028Z,72.57
2018-06-15T06:21:35.559Z,72.18
2018-06-15T06:22:16.101Z,73.15
2018-06-15T06:22:56.637Z,71.06
2018-06-15T06:23:37.160Z,73.35
2018-06-15T06:24:17.716Z,73.86
2018-06-15T06:24:58.211Z,74.16
2018-06-15T06:25:38.733Z,72.22
2018-06-15T06:26:19.252Z,70.67
2018-06-15T06:26:59.810Z,75.13
2018-06-15T06:27:40.352Z,73.09
2018-06-15T06:28:20.889Z,71.12
2018-06-15T06:29:01.446Z,70.09
2018-06-15T06:29:42.057Z,72.71
2018-06-15T06:30:22.480Z,72.41
2018-06-15T06:31:03.008Z,69.02
2018-06-15T06:31:43.529Z,70.37
2018-06-15T06:33:31.559Z,71.15
2018-06-15T06:34:12.074Z,71.73
2018-06-15T06:34:52.619Z,72.12
2018-06-15T06:35:33.147Z,74.35
2018-06-15T06:36:13.665Z,74.1
2018-06-15T06:36:54.258Z,72.71
2018-06-15T06:37:34.788Z,71.93
2018-06-15T06:38:15.316Z,71.22
2018-06-15T06:38:55.824Z,69.57
2018-06-15T06:39:36.342Z,69.47
2018-06-15T06:40:16.883Z,66.75
2018-06-15T06:40:57.423Z,67.72
2018-06-15T06:41:37.937Z,68.89
2018-06-15T06:42:18.480Z,67.05
2018-06-15T06:42:59.033Z,68.02
2018-06-15T06:43:39.573Z,69.67
2018-06-15T06:44:20.065Z,70.15
2018-06-15T06:45:00.575Z,68.4
2018-06-15T06:45:41.098Z,71.31
2018-06-15T06:46:21.621Z,73.54
2018-06-15T06:47:02.154Z,71.22
2018-06-15T06:47:43.261Z,71.31
2018-06-15T06:48:23.758Z,70.34
2018-06-15T06:49:04.291Z,68.05
2018-06-15T06:49:44.814Z,65.34
2018-06-15T06:50:25.321Z,64.75
2018-06-15T06:51:05.840Z,65.08
2018-06-15T06:51:46.361Z,68.82
2018-06-15T06:52:26.888Z,68.92
2018-06-15T06:53:07.403Z,69.12
2018-06-15T06:53:47.935Z,71.67
2018-06-15T06:54:28.458Z,68.66
2018-06-15T06:55:08.969Z,67.69
2018-06-15T06:55:49.496Z,66.14
2018-06-15T06:56:30.017Z,65.11
2018-06-15T06:57:10.547Z,64.92
2018-06-15T06:57:51.083Z,63.07
2018-06-15T06:58:31.672Z,66.37
2018-06-15T06:59:12.134Z,62.62
2018-06-15T06:59:52.674Z,60.77
2018-06-15T07:00:33.190Z,61
2018-06-15T07:01:13.709Z,61.77
2018-06-15T07:01:54.246Z,59.38
2018-06-15T07:02:34.770Z,63.52
2018-06-15T07:03:15.300Z,69.25
2018-06-15T07:03:55.823Z,71.68
2018-06-15T07:04:36.347Z,73.72
2018-06-15T07:05:16.874Z,72.36
2018-06-15T07:05:57.386Z,71.88
2018-06-15T07:06:37.886Z,67.21
2018-06-15T07:07:18.412Z,63.62
2018-06-15T07:07:58.943Z,60.54
2018-06-15T07:08:39.466Z,59.76
2018-06-15T07:09:20.011Z,68.8
2018-06-15T07:10:00.527Z,70.03
2018-06-15T07:10:41.038Z,67.5
2018-06-15T07:11:21.563Z,63.65
2018-06-15T07:12:02.092Z,64.33
2018-06-15T07:12:42.624Z,68.9
2018-06-15T07:13:23.145Z,66.08
2018-06-15T07:14:03.672Z,70.26
2018-06-15T07:14:44.224Z,67.63
2018-06-15T07:15:24.734Z,69.77
2018-06-15T07:16:05.258Z,73.56
2018-06-15T07:16:45.803Z,73.27
2018-06-15T07:17:26.315Z,73.46
2018-06-15T07:18:06.847Z,73.46
2018-06-15T07:18:47.381Z,67.05
2018-06-15T07:19:27.903Z,67.24
2018-06-15T07:20:08.426Z,66.27
2018-06-15T07:20:48.967Z,68.8
2018-06-15T07:21:29.482Z,67.93
2018-06-15T07:22:10.020Z,66.21
2018-06-15T07:22:50.540Z,68.74
2018-06-15T07:23:31.136Z,65.72
2018-06-15T07:24:11.606Z,67.28
2018-06-15T07:24:52.143Z,69.71
2018-06-15T07:25:32.674Z,67.63
2018-06-15T07:26:13.208Z,67.63
2018-06-15T07:26:53.736Z,63.84
2018-06-15T07:27:34.257Z,63.84
2018-06-15T07:28:14.772Z,62.48
2018-06-15T07:28:55.395Z,62.16
2018-06-15T07:29:35.907Z,62.26
2018-06-15T07:30:16.439Z,63.71
2018-06-15T07:30:56.945Z,61.19
2018-06-15T07:31:37.459Z,62.45
2018-06-15T07:32:17.989Z,63.04
2018-06-15T07:32:58.512Z,62.55
2018-06-15T07:33:39.058Z,59.74
2018-06-15T07:34:19.581Z,56.65
2018-06-15T07:35:00.139Z,56.16
2018-06-15T07:35:40.653Z,61.71
2018-06-15T07:36:21.172Z,61.51
2018-06-15T07:37:01.699Z,60.22
2018-06-15T07:37:42.223Z,61.48
2018-06-15T07:38:22.752Z,61
2018-06-15T07:39:03.271Z,60.74
2018-06-15T07:39:43.804Z,60.05
2018-06-15T07:40:24.331Z,61.12
2018-06-15T07:41:04.846Z,62.29
2018-06-15T07:41:45.372Z,62.38
2018-06-15T07:42:25.910Z,65.79
2018-06-15T07:43:06.426Z,68.08
2018-06-15T07:43:46.941Z,66.24
2018-06-15T07:44:27.473Z,65.79
2018-06-15T07:45:08.001Z,62.38
2018-06-15T07:45:48.508Z,58.59
2018-06-15T07:46:29.058Z,60.44
2018-06-15T07:47:09.578Z,58.4
2018-06-15T07:47:50.113Z,58.98
2018-06-15T07:48:30.638Z,63.84
2018-06-15T07:49:11.176Z,63.36
2018-06-15T07:49:51.710Z,62.97
2018-06-15T07:50:32.254Z,64.43
2018-06-15T07:51:12.793Z,63.84
2018-06-15T07:51:53.304Z,61.9
2018-06-15T07:52:33.901Z,62.23
2018-06-15T07:53:14.355Z,62.81
2018-06-15T07:53:54.858Z,66.11
2018-06-15T07:54:35.362Z,68.6
2018-06-15T07:55:15.890Z,63.45
2018-06-15T07:55:56.427Z,60.05
2018-06-15T07:56:36.928Z,60.47
2018-06-15T07:57:17.395Z,58.33
2018-06-15T07:57:58.114Z,58.72
2018-06-15T07:58:38.606Z,60.47
2018-06-15T07:59:19.136Z,60.44
2018-06-15T07:59:59.657Z,58.53
2018-06-15T08:00:40.177Z,62.51
2018-06-15T08:01:20.727Z,65.01
2018-06-15T08:02:01.252Z,63.75
2018-06-15T08:02:41.845Z,64.62
2018-06-15T08:03:22.321Z,63.62
2018-06-15T08:04:02.847Z,62.29
2018-06-15T08:04:43.359Z,60.05
2018-06-15T08:05:23.897Z,63.84
2018-06-15T08:06:04.438Z,65.56
2018-06-15T08:06:44.942Z,63.42
2018-06-15T08:07:25.476Z,62.16
2018-06-15T08:08:05.987Z,57.89
2018-06-15T08:08:46.505Z,62.55
2018-06-15T08:09:27.073Z,64.65
2018-06-15T08:10:07.649Z,64.65
2018-06-15T08:10:48.202Z,64.46
2018-06-15T08:11:28.692Z,63.78
2018-06-15T08:12:09.193Z,60.77
2018-06-15T08:12:49.715Z,58.64
2018-06-15T08:13:30.241Z,62.91
2018-06-15T08:14:10.768Z,64.75
2018-06-15T08:14:51.274Z,65.4
2018-06-15T08:15:31.798Z,60.68
2018-06-15T08:16:12.352Z,61.07
2018-06-15T08:16:52.847Z,59.7
2018-06-15T08:17:33.364Z,62.62
2018-06-15T08:18:13.901Z,64.75
2018-06-15T08:18:54.412Z,60.38
2018-06-15T08:19:34.940Z,58.54
2018-06-15T08:20:15.466Z,58.83
2018-06-15T08:20:56.017Z,65.43
2018-06-15T08:21:36.511Z,64.36
2018-06-15T08:22:17.039Z,62.32
2018-06-15T08:22:57.573Z,59.92
2018-06-15T08:23:38.095Z,61.55
2018-06-15T08:24:18.622Z,62.42
2018-06-15T08:24:59.153Z,62.42
2018-06-15T08:25:39.677Z,61
2018-06-15T08:26:20.213Z,59.92
2018-06-15T08:27:00.751Z,60.02
2018-06-15T08:27:41.327Z,64.11
2018-06-15T08:28:21.837Z,65.05
2018-06-15T08:29:02.376Z,63.95
2018-06-15T08:29:42.890Z,63.39
2018-06-15T08:30:23.417Z,61.74
2018-06-15T08:31:03.980Z,61.65
2018-06-15T08:31:44.500Z,60
2018-06-15T08:32:25.037Z,62.81
2018-06-15T08:33:05.567Z,60.68
2018-06-15T08:33:46.141Z,64.85
2018-06-15T08:34:26.684Z,66.86
2018-06-15T08:35:07.202Z,68.6
2018-06-15T08:35:47.721Z,66.21
2018-06-15T08:36:28.251Z,64.14
2018-06-15T08:37:08.773Z,64.75
2018-06-15T08:37:49.308Z,64.07
2018-06-15T08:38:29.830Z,63.65
2018-06-15T08:39:10.355Z,67.76
2018-06-15T08:39:50.911Z,68.99
2018-06-15T08:40:31.469Z,68.89
2018-06-15T08:41:11.998Z,69.18
2018-06-15T08:41:52.560Z,70.12
2018-06-15T08:42:33.057Z,65.85
2018-06-15T08:43:13.661Z,68.51
2018-06-15T08:43:54.191Z,67.34
2018-06-15T08:44:34.708Z,67.14
2018-06-15T08:45:15.236Z,66.27
2018-06-15T08:45:55.763Z,63.46
2018-06-15T08:46:36.309Z,62.49
2018-06-15T08:47:16.839Z,63.39
2018-06-15T08:47:57.340Z,62.23
2018-06-15T08:48:37.895Z,60